Time;durP1;ratioP1;P1;durP2;ratioP2;P2;SDS_P1;SDS_P2;PMS_P1;PMS_P2;Temp;Humidity;BMP_temperature;BMP_pressure;BME280_temperature;BME280_humidity;BME280_pressure;Samples;Min_cycle;Max_cycle;Signal;HPM_P1;HPM_P2
2021/08/12 00:01:42;;;;;;;;;;;27.60;43.10;;;;;;5003082;28;87157;-50
2021/08/12 00:04:08;;;;;;;;;;;27.60;43.10;;;;;;5001235;28;88837;-47
2021/08/12 00:06:33;;;;;;;;;;;27.60;43.20;;;;;;4999459;28;88134;-48
2021/08/12 00:08:59;;;;;;;;;;;27.60;43.30;;;;;;5001671;28;87255;-47
2021/08/12 00:11:24;;;;;;;;;;;27.50;43.10;;;;;;4999445;28;88698;-47
2021/08/12 00:13:50;;;;;;;;;;;27.50;43.00;;;;;;4997463;28;88130;-47
2021/08/12 00:16:15;;;;;;;;;;;27.50;43.20;;;;;;4998372;28;88024;-47
2021/08/12 00:18:42;;;;;;;;;;;27.50;43.10;;;;;;4999141;28;88373;-47
2021/08/12 00:21:08;;;;;;;;;;;27.40;43.20;;;;;;5000845;28;87157;-48
2021/08/12 00:23:33;;;;;;;;;;;27.40;43.30;;;;;;4999966;28;88051;-49
2021/08/12 00:25:59;;;;;;;;;;;27.40;43.20;;;;;;4999798;28;87649;-48
2021/08/12 00:28:24;;;;;;;;;;;27.40;43.40;;;;;;5000132;28;87284;-47
2021/08/12 00:30:50;;;;;;;;;;;27.40;43.20;;;;;;5002489;28;87882;-47
2021/08/12 00:33:16;;;;;;;;;;;27.40;43.30;;;;;;5000648;28;88127;-48
2021/08/12 00:35:41;;;;;;;;;;;27.40;43.30;;;;;;4998990;28;87610;-48
2021/08/12 00:38:07;;;;;;;;;;;27.30;43.10;;;;;;4999988;28;88688;-48
2021/08/12 00:40:32;;;;;;;;;;;27.30;43.30;;;;;;5002376;28;87149;-48
2021/08/12 00:42:58;;;;;;;;;;;27.30;43.30;;;;;;5000167;28;88351;-48
2021/08/12 00:45:24;;;;;;;;;;;27.30;43.30;;;;;;4999320;28;89675;-47
2021/08/12 00:47:49;;;;;;;;;;;27.30;43.20;;;;;;5001627;28;87964;-47
2021/08/12 00:50:15;;;;;;;;;;;27.30;43.50;;;;;;4998350;28;87239;-47
2021/08/12 00:52:40;;;;;;;;;;;27.30;43.50;;;;;;5003669;28;88070;-48
2021/08/12 00:55:07;;;;;;;;;;;27.30;43.40;;;;;;4999365;28;87343;-47
2021/08/12 00:57:34;;;;;;;;;;;27.20;43.40;;;;;;4999077;28;88169;-47
2021/08/12 00:59:59;;;;;;;;;;;27.20;43.40;;;;;;5000628;28;87141;-50
2021/08/12 01:02:25;;;;;;;;;;;27.30;43.60;;;;;;4998231;28;88097;-48
2021/08/12 01:04:51;;;;;;;;;;;27.20;43.30;;;;;;4999469;28;89922;-47
2021/08/12 01:07:26;;;;;;;;;;;27.20;43.40;;;;;;5001603;28;87857;-47
2021/08/12 01:10:00;;;;;;;;;;;27.10;43.50;;;;;;4997781;28;89146;-50
2021/08/12 01:12:35;;;;;;;;;;;27.10;43.40;;;;;;5001044;28;87792;-48
2021/08/12 01:15:03;;;;;;;;;;;27.10;43.30;;;;;;5001161;28;87273;-47
2021/08/12 01:17:35;;;;;;;;;;;27.10;43.70;;;;;;4997760;28;87548;-47
2021/08/12 01:20:19;;;;;;;;;;;27.10;43.60;;;;;;4997143;28;86424;-47
2021/08/12 01:22:47;;;;;;;;;;;27.10;43.60;;;;;;4999113;28;87152;-46
2021/08/12 01:25:26;;;;;;;;;;;27.00;43.60;;;;;;4999195;28;87710;-48
2021/08/12 01:27:52;;;;;;;;;;;27.00;43.60;;;;;;4997719;28;88145;-49
2021/08/12 01:30:20;;;;;;;;;;;27.00;43.70;;;;;;4999888;28;90008;-49
2021/08/12 01:32:51;;;;;;;;;;;27.00;43.70;;;;;;4999858;28;88092;-50
2021/08/12 01:35:19;;;;;;;;;;;27.00;43.60;;;;;;4998393;28;88217;-48
2021/08/12 01:37:51;;;;;;;;;;;27.00;43.50;;;;;;5000866;28;87804;-47
2021/08/12 01:40:18;;;;;;;;;;;26.90;43.40;;;;;;4997695;28;87931;-47
2021/08/12 01:42:44;;;;;;;;;;;26.90;43.60;;;;;;4998216;28;89531;-47
2021/08/12 01:45:10;;;;;;;;;;;26.90;43.60;;;;;;4997875;28;88435;-47
2021/08/12 01:47:38;;;;;;;;;;;26.90;43.80;;;;;;4997654;28;87200;-48
2021/08/12 01:50:05;;;;;;;;;;;26.90;43.80;;;;;;4997970;28;87179;-47
2021/08/12 01:52:32;;;;;;;;;;;26.90;43.70;;;;;;4996003;28;89882;-47
2021/08/12 01:54:58;;;;;;;;;;;26.80;43.80;;;;;;4996806;28;88167;-47
2021/08/12 01:57:24;;;;;;;;;;;26.80;43.60;;;;;;4999477;28;87199;-50
2021/08/12 01:59:49;;;;;;;;;;;26.80;43.80;;;;;;4998019;28;87172;-47
2021/08/12 02:02:15;;;;;;;;;;;26.80;43.70;;;;;;4999292;28;87542;-48
2021/08/12 02:04:42;;;;;;;;;;;26.80;43.70;;;;;;4997670;28;89721;-47
2021/08/12 02:07:09;;;;;;;;;;;26.80;43.80;;;;;;4998036;28;87276;-47
2021/08/12 02:09:35;;;;;;;;;;;26.80;43.80;;;;;;4997553;28;87456;-47
2021/08/12 02:12:02;;;;;;;;;;;26.70;43.70;;;;;;4997873;28;89017;-47
2021/08/12 02:14:28;;;;;;;;;;;26.70;43.70;;;;;;4996897;28;87219;-48
2021/08/12 02:16:54;;;;;;;;;;;26.70;43.80;;;;;;4996442;28;88089;-49
2021/08/12 02:19:19;;;;;;;;;;;26.70;44.00;;;;;;5000649;28;89984;-48
2021/08/12 02:21:47;;;;;;;;;;;26.60;44.50;;;;;;4999444;28;87269;-48
2021/08/12 02:24:20;;;;;;;;;;;26.70;44.00;;;;;;4998330;28;87933;-49
2021/08/12 02:26:55;;;;;;;;;;;26.60;44.00;;;;;;4995575;28;87186;-48
2021/08/12 02:29:21;;;;;;;;;;;26.60;43.90;;;;;;4995973;28;88924;-47
2021/08/12 02:31:47;;;;;;;;;;;26.60;43.90;;;;;;4997018;28;87833;-47
2021/08/12 02:34:14;;;;;;;;;;;26.60;43.90;;;;;;4997019;28;86441;-47
2021/08/12 02:36:41;;;;;;;;;;;26.60;44.00;;;;;;4998314;28;87934;-48
2021/08/12 02:39:07;;;;;;;;;;;26.60;44.10;;;;;;4999274;28;88377;-47
2021/08/12 02:41:33;;;;;;;;;;;26.60;44.00;;;;;;5001833;28;88107;-47
2021/08/12 02:43:59;;;;;;;;;;;26.50;44.00;;;;;;4999535;28;89108;-47
2021/08/12 02:46:26;;;;;;;;;;;26.50;44.00;;;;;;4999683;28;87182;-47
2021/08/12 02:48:52;;;;;;;;;;;26.50;44.10;;;;;;4999673;28;88900;-47
2021/08/12 02:51:18;;;;;;;;;;;26.50;44.10;;;;;;4998653;28;87745;-47
2021/08/12 02:53:44;;;;;;;;;;;26.50;44.10;;;;;;5001359;28;89040;-51
2021/08/12 02:56:11;;;;;;;;;;;26.40;44.20;;;;;;5003630;28;87256;-50
2021/08/12 02:58:37;;;;;;;;;;;26.40;44.20;;;;;;5003730;28;88385;-50
2021/08/12 03:01:03;;;;;;;;;;;26.40;44.20;;;;;;5003381;28;87197;-49
2021/08/12 03:03:29;;;;;;;;;;;26.40;44.20;;;;;;5004866;28;88553;-47
2021/08/12 03:05:55;;;;;;;;;;;26.40;44.20;;;;;;5000588;28;89490;-48
2021/08/12 03:08:22;;;;;;;;;;;26.40;44.20;;;;;;5000582;28;88297;-48
2021/08/12 03:10:47;;;;;;;;;;;26.40;44.10;;;;;;4998856;28;89721;-48
2021/08/12 03:13:13;;;;;;;;;;;26.30;44.20;;;;;;4999535;28;87135;-47
2021/08/12 03:15:39;;;;;;;;;;;26.30;44.20;;;;;;5000152;28;87397;-47
2021/08/12 03:18:05;;;;;;;;;;;26.20;44.10;;;;;;5000496;28;89693;-46
2021/08/12 03:20:31;;;;;;;;;;;26.30;44.20;;;;;;5000836;28;87153;-49
2021/08/12 03:22:57;;;;;;;;;;;26.30;44.30;;;;;;5002495;28;87723;-48
2021/08/12 03:25:23;;;;;;;;;;;26.20;44.30;;;;;;5005273;28;89326;-48
2021/08/12 03:27:49;;;;;;;;;;;26.20;44.30;;;;;;5002882;28;88787;-51
2021/08/12 03:30:15;;;;;;;;;;;26.20;44.30;;;;;;5000103;28;89369;-47
2021/08/12 03:32:40;;;;;;;;;;;26.20;44.30;;;;;;4999278;28;88783;-48
2021/08/12 03:35:06;;;;;;;;;;;26.20;44.30;;;;;;4999389;28;87260;-48
2021/08/12 03:37:31;;;;;;;;;;;26.10;44.20;;;;;;4999703;28;88633;-47
2021/08/12 03:39:57;;;;;;;;;;;26.10;44.30;;;;;;5001389;28;87126;-48
2021/08/12 03:42:23;;;;;;;;;;;26.10;44.40;;;;;;5002587;28;87527;-49
2021/08/12 03:44:48;;;;;;;;;;;26.10;44.50;;;;;;5001452;28;88205;-48
2021/08/12 03:47:14;;;;;;;;;;;26.10;44.20;;;;;;5001829;28;87742;-47
2021/08/12 03:49:39;;;;;;;;;;;26.10;44.30;;;;;;4998834;28;88146;-47
2021/08/12 03:52:05;;;;;;;;;;;26.00;44.30;;;;;;5000510;28;87180;-47
2021/08/12 03:54:31;;;;;;;;;;;26.10;44.30;;;;;;5000756;28;88061;-47
2021/08/12 03:56:57;;;;;;;;;;;26.00;44.50;;;;;;5000839;28;89961;-47
2021/08/12 03:59:23;;;;;;;;;;;26.00;44.50;;;;;;5002331;28;87251;-49
2021/08/12 04:01:49;;;;;;;;;;;25.90;44.60;;;;;;5001357;28;87988;-47
2021/08/12 04:04:14;;;;;;;;;;;25.90;44.50;;;;;;4999296;28;88564;-48
2021/08/12 04:06:40;;;;;;;;;;;25.90;44.40;;;;;;5004644;28;87886;-51
2021/08/12 04:09:05;;;;;;;;;;;25.90;44.40;;;;;;4999867;28;87995;-47
2021/08/12 04:11:31;;;;;;;;;;;25.90;44.50;;;;;;4998666;28;86398;-49
2021/08/12 04:13:56;;;;;;;;;;;25.90;44.60;;;;;;4999509;28;87137;-47
2021/08/12 04:16:22;;;;;;;;;;;25.90;44.70;;;;;;4998939;28;87933;-47
2021/08/12 04:18:47;;;;;;;;;;;25.90;44.70;;;;;;4997900;28;88139;-49
2021/08/12 04:21:13;;;;;;;;;;;25.90;44.60;;;;;;4999170;28;88057;-48
2021/08/12 04:23:39;;;;;;;;;;;25.80;44.50;;;;;;5000023;28;88014;-47
2021/08/12 04:26:04;;;;;;;;;;;25.80;44.70;;;;;;5001011;28;87135;-47
2021/08/12 04:28:30;;;;;;;;;;;25.80;44.70;;;;;;5003180;28;87237;-47
2021/08/12 04:30:55;;;;;;;;;;;25.80;44.60;;;;;;5000897;28;87222;-47
2021/08/12 04:33:21;;;;;;;;;;;25.70;44.50;;;;;;5002545;28;87299;-49
2021/08/12 04:35:46;;;;;;;;;;;25.70;44.60;;;;;;4999333;28;87410;-47
2021/08/12 04:38:12;;;;;;;;;;;25.70;44.60;;;;;;4997983;28;87131;-48
2021/08/12 04:40:37;;;;;;;;;;;25.70;44.60;;;;;;4999366;28;87148;-47
2021/08/12 04:43:03;;;;;;;;;;;25.70;44.70;;;;;;4997770;28;89528;-47
2021/08/12 04:45:28;;;;;;;;;;;25.70;44.70;;;;;;4998237;28;87102;-47
2021/08/12 04:47:57;;;;;;;;;;;25.70;44.70;;;;;;4997239;28;89082;-48
2021/08/12 04:50:23;;;;;;;;;;;25.70;44.90;;;;;;5001295;28;87629;-47
2021/08/12 04:52:48;;;;;;;;;;;25.60;44.80;;;;;;4997852;28;87760;-47
2021/08/12 04:55:14;;;;;;;;;;;25.60;44.80;;;;;;4997008;28;88283;-50
2021/08/12 04:57:39;;;;;;;;;;;25.60;44.90;;;;;;4998268;28;88759;-47
2021/08/12 05:00:05;;;;;;;;;;;25.60;44.90;;;;;;4999899;28;87959;-47
2021/08/12 05:02:32;;;;;;;;;;;25.60;45.00;;;;;;5000580;28;89952;-48
2021/08/12 05:04:57;;;;;;;;;;;25.60;45.00;;;;;;4998914;28;87187;-47
2021/08/12 05:07:23;;;;;;;;;;;25.60;45.30;;;;;;4997768;28;89521;-47
2021/08/12 05:09:48;;;;;;;;;;;25.50;45.00;;;;;;4997291;28;88188;-48
2021/08/12 05:12:17;;;;;;;;;;;25.60;45.00;;;;;;4999972;28;87103;-48
2021/08/12 05:14:43;;;;;;;;;;;25.60;45.10;;;;;;4997588;28;89356;-47
2021/08/12 05:17:08;;;;;;;;;;;25.50;45.10;;;;;;4997335;28;87151;-48
2021/08/12 05:19:34;;;;;;;;;;;25.50;45.10;;;;;;4997699;28;87138;-49
2021/08/12 05:21:59;;;;;;;;;;;25.50;45.10;;;;;;4996823;28;87205;-47
2021/08/12 05:24:25;;;;;;;;;;;25.50;45.10;;;;;;4997195;28;86386;-48
2021/08/12 05:26:51;;;;;;;;;;;25.50;45.10;;;;;;4999513;28;88677;-48
2021/08/12 05:29:16;;;;;;;;;;;25.50;45.20;;;;;;5001280;28;88610;-48
2021/08/12 05:31:42;;;;;;;;;;;25.50;45.30;;;;;;4997538;28;89008;-48
2021/08/12 05:34:07;;;;;;;;;;;25.50;45.30;;;;;;4998963;28;88655;-50
2021/08/12 05:36:33;;;;;;;;;;;25.40;45.20;;;;;;4997950;28;87214;-48
2021/08/12 05:38:58;;;;;;;;;;;25.50;45.40;;;;;;4996471;28;87501;-47
2021/08/12 05:41:24;;;;;;;;;;;25.40;45.30;;;;;;4997103;28;89219;-47
2021/08/12 05:43:50;;;;;;;;;;;25.40;45.30;;;;;;4998191;28;88598;-49
2021/08/12 05:46:15;;;;;;;;;;;25.40;45.40;;;;;;5001304;28;87133;-48
2021/08/12 05:48:41;;;;;;;;;;;25.40;45.40;;;;;;5000531;28;87664;-47
2021/08/12 05:51:06;;;;;;;;;;;25.40;45.40;;;;;;4997508;28;88575;-47
2021/08/12 05:53:32;;;;;;;;;;;25.40;45.40;;;;;;5001787;28;88450;-47
2021/08/12 05:55:57;;;;;;;;;;;25.40;45.40;;;;;;4995882;28;88125;-48
2021/08/12 05:58:23;;;;;;;;;;;25.40;45.50;;;;;;4996344;28;88298;-47
2021/08/12 06:00:48;;;;;;;;;;;25.40;45.50;;;;;;4997136;28;88267;-47
2021/08/12 06:03:14;;;;;;;;;;;25.40;45.70;;;;;;4996918;28;87142;-47
2021/08/12 06:05:40;;;;;;;;;;;25.40;45.70;;;;;;4995756;28;89293;-47
2021/08/12 06:08:07;;;;;;;;;;;25.40;45.70;;;;;;5000438;28;88872;-47
2021/08/12 06:10:33;;;;;;;;;;;25.30;45.70;;;;;;4998229;28;87114;-50
2021/08/12 06:12:59;;;;;;;;;;;25.40;45.80;;;;;;4998141;28;86819;-48
2021/08/12 06:15:25;;;;;;;;;;;25.40;45.80;;;;;;4998926;28;88273;-47
2021/08/12 06:17:51;;;;;;;;;;;25.30;45.80;;;;;;5000269;28;87612;-49
2021/08/12 06:20:18;;;;;;;;;;;25.30;45.80;;;;;;4999088;28;90210;-48
2021/08/12 06:22:44;;;;;;;;;;;25.40;46.00;;;;;;4997751;28;87219;-47
2021/08/12 06:25:10;;;;;;;;;;;25.40;46.10;;;;;;4997054;28;87621;-48
2021/08/12 06:27:35;;;;;;;;;;;25.30;46.00;;;;;;4996639;28;87559;-48
2021/08/12 06:30:01;;;;;;;;;;;25.30;46.00;;;;;;4996385;28;87254;-47
2021/08/12 06:32:28;;;;;;;;;;;25.30;46.00;;;;;;4995980;28;87665;-49
2021/08/12 06:34:54;;;;;;;;;;;25.30;46.00;;;;;;4999889;28;90152;-47
2021/08/12 06:37:19;;;;;;;;;;;25.30;46.10;;;;;;5002869;28;86393;-47
2021/08/12 06:39:45;;;;;;;;;;;25.30;46.10;;;;;;4998633;28;88139;-48
2021/08/12 06:42:10;;;;;;;;;;;25.30;46.10;;;;;;4998065;28;87130;-46
2021/08/12 06:44:36;;;;;;;;;;;25.30;46.10;;;;;;4996789;28;89195;-47
2021/08/12 06:47:01;;;;;;;;;;;25.30;46.10;;;;;;4996824;28;88689;-47
2021/08/12 06:49:27;;;;;;;;;;;25.30;46.20;;;;;;4998083;28;87146;-47
2021/08/12 06:51:53;;;;;;;;;;;25.30;46.20;;;;;;4997382;28;88684;-46
2021/08/12 06:54:18;;;;;;;;;;;25.30;46.10;;;;;;4996199;28;87591;-47
2021/08/12 06:56:44;;;;;;;;;;;25.30;46.20;;;;;;4995726;28;87126;-47
2021/08/12 06:59:09;;;;;;;;;;;25.30;46.20;;;;;;4998038;28;87477;-48
2021/08/12 07:01:35;;;;;;;;;;;25.30;46.40;;;;;;4999050;28;87240;-49
2021/08/12 07:04:00;;;;;;;;;;;25.30;46.40;;;;;;4998107;28;88344;-47
2021/08/12 07:06:26;;;;;;;;;;;25.30;46.30;;;;;;4996768;28;88350;-48
2021/08/12 07:08:53;;;;;;;;;;;25.30;46.30;;;;;;4994841;28;88140;-48
2021/08/12 07:11:18;;;;;;;;;;;25.30;46.30;;;;;;4996877;28;89857;-47
2021/08/12 07:13:46;;;;;;;;;;;25.30;46.40;;;;;;4996585;28;88736;-47
2021/08/12 07:16:14;;;;;;;;;;;25.30;46.40;;;;;;4999058;28;87132;-48
2021/08/12 07:18:40;;;;;;;;;;;25.30;46.40;;;;;;4995849;28;88997;-47
2021/08/12 07:21:11;;;;;;;;;;;25.30;46.40;;;;;;4997889;28;87645;-50
2021/08/12 07:23:37;;;;;;;;;;;25.30;46.50;;;;;;5002415;28;87236;-47
2021/08/12 07:26:03;;;;;;;;;;;25.30;46.50;;;;;;5002790;28;87640;-48
2021/08/12 07:28:29;;;;;;;;;;;25.30;46.60;;;;;;5000072;28;87206;-47
2021/08/12 07:30:54;;;;;;;;;;;25.30;46.80;;;;;;4999575;28;87186;-49
2021/08/12 07:33:20;;;;;;;;;;;25.30;46.90;;;;;;4997813;28;89391;-47
2021/08/12 07:35:45;;;;;;;;;;;25.30;46.70;;;;;;4998364;28;88772;-47
2021/08/12 07:38:11;;;;;;;;;;;25.30;46.80;;;;;;5000062;28;88450;-47
2021/08/12 07:40:36;;;;;;;;;;;25.30;46.90;;;;;;4998387;28;87609;-48
2021/08/12 07:43:02;;;;;;;;;;;25.30;46.80;;;;;;5002913;28;87150;-47
2021/08/12 07:45:27;;;;;;;;;;;25.30;46.90;;;;;;5000478;28;89092;-48
2021/08/12 07:47:53;;;;;;;;;;;25.30;46.80;;;;;;5002056;28;87125;-49
2021/08/12 07:50:18;;;;;;;;;;;25.30;46.90;;;;;;5002802;28;87666;-47
2021/08/12 07:52:44;;;;;;;;;;;25.30;47.10;;;;;;5001864;28;88740;-47
2021/08/12 07:55:10;;;;;;;;;;;25.30;47.10;;;;;;4999719;28;88671;-48
2021/08/12 07:57:36;;;;;;;;;;;25.30;47.00;;;;;;4997863;28;89438;-47
2021/08/12 08:00:02;;;;;;;;;;;25.40;47.20;;;;;;4998397;28;89887;-48
2021/08/12 08:02:28;;;;;;;;;;;25.30;47.00;;;;;;5002117;28;87227;-47
2021/08/12 08:04:53;;;;;;;;;;;25.40;47.20;;;;;;5000020;28;87260;-48
2021/08/12 08:07:19;;;;;;;;;;;25.30;47.20;;;;;;5001831;28;87172;-47
2021/08/12 08:09:44;;;;;;;;;;;25.30;47.20;;;;;;5001983;28;87450;-47
2021/08/12 08:12:10;;;;;;;;;;;25.30;47.30;;;;;;5001988;28;88008;-47
2021/08/12 08:14:35;;;;;;;;;;;25.30;47.20;;;;;;5002951;28;88119;-47
2021/08/12 08:17:01;;;;;;;;;;;25.40;47.20;;;;;;5002217;28;87256;-49
2021/08/12 08:19:29;;;;;;;;;;;25.30;47.20;;;;;;5002170;28;88851;-47
2021/08/12 08:21:54;;;;;;;;;;;25.40;47.40;;;;;;4998057;28;88155;-47
2021/08/12 08:24:20;;;;;;;;;;;25.40;47.30;;;;;;5000182;28;89940;-48
2021/08/12 08:26:45;;;;;;;;;;;25.40;47.20;;;;;;4998860;28;88199;-47
2021/08/12 08:29:11;;;;;;;;;;;25.40;47.40;;;;;;5000994;28;87983;-48
2021/08/12 08:31:36;;;;;;;;;;;25.40;47.50;;;;;;5000717;28;88683;-47
2021/08/12 08:34:02;;;;;;;;;;;25.40;47.30;;;;;;4999740;28;88751;-48
2021/08/12 08:36:28;;;;;;;;;;;25.30;47.50;;;;;;5002204;28;87547;-47
2021/08/12 08:38:54;;;;;;;;;;;25.40;47.40;;;;;;5002077;28;88507;-48
2021/08/12 08:41:19;;;;;;;;;;;25.40;47.40;;;;;;5001896;28;87136;-48
2021/08/12 08:43:46;;;;;;;;;;;25.40;47.40;;;;;;5001315;28;89086;-47
2021/08/12 08:46:13;;;;;;;;;;;25.40;47.30;;;;;;5001159;28;90085;-47
2021/08/12 08:48:40;;;;;;;;;;;25.40;47.30;;;;;;4997243;28;88573;-47
2021/08/12 08:51:06;;;;;;;;;;;25.40;47.20;;;;;;5000527;28;88124;-47
2021/08/12 08:53:32;;;;;;;;;;;25.40;47.20;;;;;;4999309;28;87178;-48
2021/08/12 08:55:58;;;;;;;;;;;25.40;47.20;;;;;;4997910;28;87407;-47
2021/08/12 08:58:24;;;;;;;;;;;25.50;47.10;;;;;;4996635;28;87861;-47
2021/08/12 09:00:50;;;;;;;;;;;25.40;47.10;;;;;;4998794;28;88165;-47
2021/08/12 09:03:16;;;;;;;;;;;25.40;47.00;;;;;;5000232;28;88530;-47
2021/08/12 09:05:42;;;;;;;;;;;25.50;47.20;;;;;;4997264;28;88399;-47
2021/08/12 09:08:07;;;;;;;;;;;25.50;47.10;;;;;;5004298;28;88460;-48
2021/08/12 09:10:33;;;;;;;;;;;25.50;47.00;;;;;;4999504;28;90133;-47
2021/08/12 09:12:58;;;;;;;;;;;25.50;47.00;;;;;;4997943;28;88097;-47
2021/08/12 09:15:24;;;;;;;;;;;25.50;47.10;;;;;;5000456;28;88744;-47
2021/08/12 09:17:51;;;;;;;;;;;25.50;47.00;;;;;;5001017;28;88052;-48
2021/08/12 09:20:20;;;;;;;;;;;25.50;47.00;;;;;;4999108;28;87152;-47
2021/08/12 09:22:53;;;;;;;;;;;25.50;46.60;;;;;;4999588;28;87489;-47
2021/08/12 09:25:28;;;;;;;;;;;25.50;46.70;;;;;;4998874;28;89199;-48
2021/08/12 09:28:10;;;;;;;;;;;25.50;46.70;;;;;;4998604;28;86419;-47
2021/08/12 09:30:35;;;;;;;;;;;25.50;46.60;;;;;;5000154;28;87168;-47
2021/08/12 09:33:01;;;;;;;;;;;25.60;46.70;;;;;;4998026;28;87232;-47
2021/08/12 09:35:27;;;;;;;;;;;25.60;46.50;;;;;;4996942;28;88112;-47
2021/08/12 09:37:53;;;;;;;;;;;25.60;46.60;;;;;;4996767;28;89687;-48
2021/08/12 09:40:25;;;;;;;;;;;25.60;46.60;;;;;;4998373;28;88655;-47
2021/08/12 09:42:59;;;;;;;;;;;25.60;46.60;;;;;;4999421;28;88739;-47
2021/08/12 09:45:25;;;;;;;;;;;25.60;46.60;;;;;;5000566;28;88237;-49
2021/08/12 09:47:51;;;;;;;;;;;25.60;46.50;;;;;;5000767;28;87249;-50
2021/08/12 09:50:23;;;;;;;;;;;25.60;46.20;;;;;;5000934;28;88780;-48
2021/08/12 09:52:49;;;;;;;;;;;25.70;46.20;;;;;;5000927;28;87518;-47
2021/08/12 09:55:18;;;;;;;;;;;25.70;46.30;;;;;;4997330;28;87195;-46
2021/08/12 09:57:54;;;;;;;;;;;25.70;46.20;;;;;;4998120;28;88436;-47
2021/08/12 10:00:49;;;;;;;;;;;25.70;46.10;;;;;;4996369;28;88112;-47
2021/08/12 10:03:22;;;;;;;;;;;25.70;46.30;;;;;;4993094;28;90215;-47
2021/08/12 10:05:47;;;;;;;;;;;25.70;46.20;;;;;;4999005;28;88814;-46
2021/08/12 10:08:24;;;;;;;;;;;25.70;46.30;;;;;;4998656;28;87495;-48
2021/08/12 10:10:49;;;;;;;;;;;25.70;46.50;;;;;;5000786;28;87629;-48
2021/08/12 10:13:15;;;;;;;;;;;25.70;46.50;;;;;;5002965;28;88281;-48
2021/08/12 10:15:48;;;;;;;;;;;25.70;45.90;;;;;;4999714;28;87224;-47
2021/08/12 10:18:15;;;;;;;;;;;25.70;45.80;;;;;;4997300;28;89363;-47
2021/08/12 10:20:43;;;;;;;;;;;25.80;45.90;;;;;;5000175;28;87168;-47
2021/08/12 10:23:09;;;;;;;;;;;25.80;45.90;;;;;;4997635;28;87164;-48
2021/08/12 10:25:35;;;;;;;;;;;25.80;46.10;;;;;;4997326;28;88619;-46
2021/08/12 10:28:01;;;;;;;;;;;25.80;46.10;;;;;;4997037;28;87180;-47
2021/08/12 10:30:27;;;;;;;;;;;25.80;46.40;;;;;;4999162;28;88696;-46
2021/08/12 10:32:54;;;;;;;;;;;25.80;46.10;;;;;;4999867;28;87167;-49
2021/08/12 10:35:22;;;;;;;;;;;25.80;45.20;;;;;;5000202;28;87180;-48
2021/08/12 10:37:48;;;;;;;;;;;25.80;45.20;;;;;;4998464;28;88382;-49
2021/08/12 10:40:15;;;;;;;;;;;25.90;45.20;;;;;;5000203;28;87191;-48
2021/08/12 10:42:45;;;;;;;;;;;25.90;45.60;;;;;;4998473;28;87913;-47
2021/08/12 10:45:11;;;;;;;;;;;25.90;45.30;;;;;;4998772;28;89607;-48
2021/08/12 10:47:37;;;;;;;;;;;25.90;45.00;;;;;;4998210;28;87234;-47
2021/08/12 10:50:21;;;;;;;;;;;25.90;45.00;;;;;;4996514;28;88942;-48
2021/08/12 10:53:11;;;;;;;;;;;25.90;45.60;;;;;;4998106;28;89916;-47
2021/08/12 10:55:39;;;;;;;;;;;25.90;45.70;;;;;;5000244;28;87212;-47
2021/08/12 10:58:17;;;;;;;;;;;25.90;45.70;;;;;;5000361;28;88829;-47
2021/08/12 11:00:46;;;;;;;;;;;26.00;45.50;;;;;;5002442;28;87159;-47
2021/08/12 11:03:11;;;;;;;;;;;26.00;45.40;;;;;;4999088;28;88558;-47
2021/08/12 11:05:55;;;;;;;;;;;26.00;45.30;;;;;;5002174;28;88425;-47
2021/08/12 11:08:41;;;;;;;;;;;26.00;45.30;;;;;;4999861;28;86502;-47
2021/08/12 11:11:06;;;;;;;;;;;26.00;44.70;;;;;;4999733;28;87310;-47
2021/08/12 11:13:32;;;;;;;;;;;26.00;45.40;;;;;;4998630;28;87595;-47
2021/08/12 11:15:58;;;;;;;;;;;26.10;45.40;;;;;;5000460;28;89732;-48
2021/08/12 11:18:45;;;;;;;;;;;26.10;45.40;;;;;;5002281;28;88446;-49
2021/08/12 11:21:29;;;;;;;;;;;26.10;45.00;;;;;;5004735;28;88241;-48
2021/08/12 11:23:55;;;;;;;;;;;26.10;44.50;;;;;;5003728;28;87502;-48
2021/08/12 11:26:20;;;;;;;;;;;26.10;44.60;;;;;;5001832;28;88071;-47
2021/08/12 11:28:46;;;;;;;;;;;26.10;45.10;;;;;;5002477;28;87146;-48
2021/08/12 11:31:23;;;;;;;;;;;26.10;44.60;;;;;;5001800;28;89061;-48
2021/08/12 11:33:50;;;;;;;;;;;26.20;45.00;;;;;;5000528;28;89083;-48
2021/08/12 11:36:17;;;;;;;;;;;26.20;44.80;;;;;;4999510;28;87177;-47
2021/08/12 11:38:45;;;;;;;;;;;26.20;44.80;;;;;;5002835;28;88717;-48
2021/08/12 11:41:11;;;;;;;;;;;26.20;44.80;;;;;;4997687;28;89368;-46
2021/08/12 11:43:40;;;;;;;;;;;26.20;44.60;;;;;;5003052;28;88817;-47
2021/08/12 11:46:07;;;;;;;;;;;26.20;45.30;;;;;;4999670;28;89420;-47
2021/08/12 11:48:34;;;;;;;;;;;26.30;44.90;;;;;;4998057;28;87155;-49
2021/08/12 11:51:00;;;;;;;;;;;26.40;43.80;;;;;;5000756;28;87189;-48
2021/08/12 11:53:36;;;;;;;;;;;26.50;42.60;;;;;;4999146;28;88322;-48
2021/08/12 11:56:18;;;;;;;;;;;26.70;43.20;;;;;;4999137;28;87120;-48
2021/08/12 11:58:44;;;;;;;;;;;27.00;41.50;;;;;;5001901;28;87225;-52
2021/08/12 12:01:13;;;;;;;;;;;27.20;42.40;;;;;;5001902;28;87228;-50
2021/08/12 12:03:38;;;;;;;;;;;27.30;39.70;;;;;;4997621;28;87184;-46
2021/08/12 12:06:04;;;;;;;;;;;27.30;40.80;;;;;;5003644;28;88891;-48
2021/08/12 12:08:29;;;;;;;;;;;27.10;41.10;;;;;;5001774;28;87164;-48
2021/08/12 12:11:06;;;;;;;;;;;27.00;42.10;;;;;;5001555;28;88041;-47
2021/08/12 12:13:32;;;;;;;;;;;26.90;42.10;;;;;;4999483;28;89902;-47
2021/08/12 12:15:57;;;;;;;;;;;26.90;42.40;;;;;;4999030;28;87212;-47
2021/08/12 12:18:32;;;;;;;;;;;26.80;42.80;;;;;;4998339;28;88953;-47
2021/08/12 12:21:05;;;;;;;;;;;26.80;42.90;;;;;;5000428;28;89481;-47
2021/08/12 12:23:30;;;;;;;;;;;26.90;43.40;;;;;;4998727;28;87387;-47
2021/08/12 12:25:56;;;;;;;;;;;26.80;43.50;;;;;;5004001;28;88611;-48
2021/08/12 12:28:21;;;;;;;;;;;26.80;43.50;;;;;;5002246;28;88035;-47
2021/08/12 12:30:47;;;;;;;;;;;26.80;43.50;;;;;;5000711;28;89730;-46
2021/08/12 12:33:15;;;;;;;;;;;26.80;43.40;;;;;;5002321;28;88049;-46
2021/08/12 12:35:48;;;;;;;;;;;26.80;43.80;;;;;;4999019;28;87127;-48
2021/08/12 12:38:16;;;;;;;;;;;26.70;43.30;;;;;;5001445;28;88780;-49
2021/08/12 12:40:42;;;;;;;;;;;26.80;43.70;;;;;;4998321;28;88777;-47
2021/08/12 12:43:08;;;;;;;;;;;26.80;43.80;;;;;;4997510;28;87302;-47
2021/08/12 12:45:47;;;;;;;;;;;26.80;43.70;;;;;;4997998;28;87958;-47
2021/08/12 12:48:13;;;;;;;;;;;26.80;44.00;;;;;;5001994;28;88395;-47
2021/08/12 12:50:42;;;;;;;;;;;26.80;44.20;;;;;;4998310;28;87160;-47
2021/08/12 12:53:07;;;;;;;;;;;26.80;44.00;;;;;;4999097;28;89285;-48
2021/08/12 12:55:33;;;;;;;;;;;26.80;44.30;;;;;;4998346;28;88104;-47
2021/08/12 12:58:02;;;;;;;;;;;26.80;44.00;;;;;;4999562;28;89449;-48
2021/08/12 13:00:32;;;;;;;;;;;26.90;44.30;;;;;;5000804;28;89327;-48
2021/08/12 13:02:58;;;;;;;;;;;26.90;44.00;;;;;;4997113;28;88344;-47
2021/08/12 13:05:44;;;;;;;;;;;26.90;44.30;;;;;;4997289;28;88996;-47
2021/08/12 13:08:10;;;;;;;;;;;26.90;43.90;;;;;;4997968;28;88198;-47
2021/08/12 13:10:36;;;;;;;;;;;26.90;44.00;;;;;;5001177;28;87200;-47
2021/08/12 13:13:01;;;;;;;;;;;26.90;43.90;;;;;;4999690;28;87014;-47
2021/08/12 13:15:28;;;;;;;;;;;26.90;44.20;;;;;;5000449;28;87152;-47
2021/08/12 13:18:00;;;;;;;;;;;26.90;43.50;;;;;;5000889;28;88296;-48
2021/08/12 13:20:26;;;;;;;;;;;27.00;44.00;;;;;;4997873;28;88717;-47
2021/08/12 13:22:55;;;;;;;;;;;27.00;44.20;;;;;;4999634;28;87260;-47
2021/08/12 13:25:22;;;;;;;;;;;27.00;44.00;;;;;;4997014;28;88645;-46
2021/08/12 13:27:49;;;;;;;;;;;27.00;43.90;;;;;;4998351;28;89472;-48
2021/08/12 13:30:16;;;;;;;;;;;27.00;43.90;;;;;;4999646;28;88857;-46
2021/08/12 13:32:41;;;;;;;;;;;27.00;44.00;;;;;;5003908;28;88163;-51
2021/08/12 13:35:07;;;;;;;;;;;27.10;44.10;;;;;;4998504;28;88648;-47
2021/08/12 13:37:33;;;;;;;;;;;27.10;44.20;;;;;;4997222;28;88870;-47
2021/08/12 13:39:58;;;;;;;;;;;27.10;44.00;;;;;;4997362;28;89520;-47
2021/08/12 13:42:25;;;;;;;;;;;27.20;44.00;;;;;;4998724;28;87245;-49
2021/08/12 13:44:50;;;;;;;;;;;27.20;43.70;;;;;;4998056;28;89293;-47
2021/08/12 13:47:16;;;;;;;;;;;27.20;43.50;;;;;;4998117;28;90165;-48
2021/08/12 13:49:42;;;;;;;;;;;27.30;43.70;;;;;;4999560;28;87235;-48
2021/08/12 13:52:07;;;;;;;;;;;27.20;43.80;;;;;;5000433;28;89425;-49
2021/08/12 13:54:36;;;;;;;;;;;27.30;43.80;;;;;;5003256;28;88661;-48
2021/08/12 13:57:02;;;;;;;;;;;27.30;43.50;;;;;;4996977;28;87137;-46
2021/08/12 13:59:28;;;;;;;;;;;27.30;43.60;;;;;;4997190;28;88714;-47
2021/08/12 14:01:54;;;;;;;;;;;27.30;43.70;;;;;;4998686;28;86383;-47
2021/08/12 14:04:20;;;;;;;;;;;27.30;43.50;;;;;;4997550;28;88328;-47
2021/08/12 14:06:46;;;;;;;;;;;27.30;43.90;;;;;;4997553;28;88019;-47
2021/08/12 14:09:14;;;;;;;;;;;27.40;43.50;;;;;;4996703;28;88089;-48
2021/08/12 14:11:40;;;;;;;;;;;27.40;43.20;;;;;;4996216;28;89766;-49
2021/08/12 14:14:06;;;;;;;;;;;27.50;43.40;;;;;;4996047;28;89688;-48
2021/08/12 14:16:32;;;;;;;;;;;27.40;43.30;;;;;;4999233;28;87139;-47